createdAt,value
2022-09-26T00:01:01.890Z,9.70
2022-09-26T00:04:37.298Z,9.70
2022-09-26T00:07:59.963Z,9.70
2022-09-26T00:11:09.760Z,9.70
2022-09-26T00:14:16.725Z,9.70
2022-09-26T00:17:22.682Z,9.70
2022-09-26T00:20:51.697Z,9.70
2022-09-26T00:24:03.834Z,9.70
2022-09-26T00:27:26.575Z,9.70
2022-09-26T00:30:23.606Z,9.70
2022-09-26T00:33:39.178Z,9.70
2022-09-26T00:36:37.981Z,9.70
2022-09-26T00:39:29.758Z,9.70
2022-09-26T00:42:27.754Z,9.70
2022-09-26T00:45:25.249Z,9.70
2022-09-26T00:48:24.154Z,9.60
2022-09-26T00:51:17.226Z,9.60
2022-09-26T00:54:24.265Z,9.60
2022-09-26T00:57:40.026Z,9.70
2022-09-26T01:00:42.399Z,9.60
2022-09-26T01:03:50.110Z,9.60
2022-09-26T01:07:08.399Z,9.60
2022-09-26T01:10:27.347Z,9.60
2022-09-26T01:13:34.537Z,9.50
2022-09-26T01:16:31.538Z,9.60
2022-09-26T01:19:36.718Z,9.60
2022-09-26T01:23:07.525Z,9.50
2022-09-26T01:26:35.968Z,9.60
2022-09-26T01:30:09.547Z,9.60
2022-09-26T01:33:38.047Z,9.60
2022-09-26T01:37:02.288Z,9.60
2022-09-26T01:40:17.975Z,9.60
2022-09-26T01:43:23.661Z,9.60
2022-09-26T01:46:40.020Z,9.50
2022-09-26T01:49:49.420Z,9.50
2022-09-26T01:52:55.173Z,9.60
2022-09-26T01:56:01.042Z,9.60
2022-09-26T01:59:16.050Z,9.50
2022-09-26T02:02:32.343Z,9.50
2022-09-26T02:05:50.990Z,9.50
2022-09-26T02:08:54.938Z,9.60
2022-09-26T02:12:00.220Z,9.50
2022-09-26T02:14:59.667Z,9.60
2022-09-26T02:18:06.682Z,9.60
2022-09-26T02:21:04.895Z,9.60
2022-09-26T02:24:08.234Z,9.60
2022-09-26T02:27:06.780Z,9.70
2022-09-26T02:30:14.217Z,9.70
2022-09-26T02:33:09.634Z,9.70
2022-09-26T02:36:18.505Z,9.70
2022-09-26T02:39:20.137Z,9.80
2022-09-26T02:42:34.044Z,9.80
2022-09-26T02:45:39.606Z,9.80
2022-09-26T02:50:04.030Z,9.90
2022-09-26T02:53:00.089Z,9.90
2022-09-26T02:56:19.596Z,9.90
2022-09-26T02:59:37.545Z,9.90
2022-09-26T03:02:53.833Z,9.90
2022-09-26T03:06:04.174Z,9.90
2022-09-26T03:09:10.489Z,9.90
2022-09-26T03:12:19.504Z,10.00
2022-09-26T03:15:33.619Z,10.00
2022-09-26T03:18:50.929Z,10.00
2022-09-26T03:21:57.053Z,10.10
2022-09-26T03:25:16.081Z,10.10
2022-09-26T03:28:24.902Z,10.10
2022-09-26T03:31:27.381Z,10.10
2022-09-26T03:34:54.381Z,10.10
2022-09-26T03:37:58.847Z,10.20
2022-09-26T03:40:57.716Z,10.20
2022-09-26T03:44:13.725Z,10.30
2022-09-26T03:47:23.619Z,10.30
2022-09-26T03:53:36.550Z,10.30
2022-09-26T03:56:57.765Z,10.30
2022-09-26T04:00:10.261Z,10.30
2022-09-26T04:03:08.285Z,10.30
2022-09-26T04:06:17.035Z,10.30
2022-09-26T04:09:37.321Z,10.30
2022-09-26T04:15:47.522Z,10.40
2022-09-26T04:19:01.843Z,10.40
2022-09-26T04:22:18.113Z,10.40
2022-09-26T04:25:27.599Z,10.40
2022-09-26T04:28:41.088Z,10.40
2022-09-26T04:31:49.173Z,10.40
2022-09-26T04:34:54.869Z,10.40
2022-09-26T04:38:17.508Z,10.40
2022-09-26T04:41:05.019Z,10.40
2022-09-26T04:44:35.546Z,10.40
2022-09-26T04:47:59.100Z,10.40
2022-09-26T04:51:08.371Z,10.40
2022-09-26T04:54:17.511Z,10.40
2022-09-26T04:57:32.296Z,10.40
2022-09-26T05:01:10.404Z,10.40
2022-09-26T05:04:00.516Z,10.40
2022-09-26T05:10:04.110Z,10.50
2022-09-26T05:13:11.970Z,10.50
2022-09-26T05:16:21.407Z,10.50
2022-09-26T05:19:23.241Z,10.40
2022-09-26T05:22:25.613Z,10.50
2022-09-26T05:25:50.236Z,10.50
2022-09-26T05:29:16.047Z,10.50
2022-09-26T05:35:41.625Z,10.50
2022-09-26T05:38:51.876Z,10.50
2022-09-26T05:41:39.047Z,10.50
2022-09-26T05:44:33.510Z,10.60
2022-09-26T05:47:22.154Z,10.50
2022-09-26T05:50:14.677Z,10.60
2022-09-26T05:53:07.494Z,10.60
2022-09-26T05:55:56.941Z,10.60
2022-09-26T05:58:45.100Z,10.60
2022-09-26T06:01:34.169Z,10.60
2022-09-26T06:04:22.336Z,10.70
2022-09-26T06:07:10.826Z,10.70
2022-09-26T06:10:00.442Z,10.70
2022-09-26T06:12:51.000Z,10.70
2022-09-26T06:15:39.842Z,10.70
2022-09-26T06:18:27.966Z,10.70
2022-09-26T06:21:18.762Z,10.80
2022-09-26T06:24:07.238Z,10.80
2022-09-26T06:26:56.662Z,10.80
2022-09-26T06:29:44.794Z,10.80
2022-09-26T06:32:34.813Z,10.90
2022-09-26T06:35:23.104Z,10.90
2022-09-26T06:38:11.511Z,10.90
2022-09-26T06:41:02.746Z,10.90
2022-09-26T06:43:52.273Z,11.00
2022-09-26T06:46:40.480Z,11.00
2022-09-26T06:49:28.619Z,11.00
2022-09-26T06:52:18.419Z,11.00
2022-09-26T06:55:08.472Z,11.00
2022-09-26T06:57:58.403Z,11.10
2022-09-26T07:00:48.116Z,11.10
2022-09-26T07:03:38.619Z,11.20
2022-09-26T07:06:30.061Z,11.20
2022-09-26T07:09:18.645Z,11.20
2022-09-26T07:12:15.933Z,11.20
2022-09-26T07:15:07.371Z,11.30
2022-09-26T07:17:57.979Z,11.30
2022-09-26T07:20:46.460Z,11.30
2022-09-26T07:23:35.347Z,11.30
2022-09-26T07:26:23.482Z,11.40
2022-09-26T07:29:12.336Z,11.50
2022-09-26T07:32:03.522Z,11.50
2022-09-26T07:34:53.175Z,11.50
2022-09-26T07:37:44.025Z,11.50
2022-09-26T07:40:32.611Z,11.50
2022-09-26T07:43:26.750Z,11.50
2022-09-26T07:46:46.844Z,11.50
2022-09-26T07:49:52.727Z,11.40
2022-09-26T07:52:43.534Z,11.50
2022-09-26T07:55:31.671Z,11.50
2022-09-26T07:58:25.908Z,11.50
2022-09-26T08:01:16.462Z,11.60
2022-09-26T08:04:07.211Z,11.60
2022-09-26T08:06:56.347Z,11.60
2022-09-26T08:09:45.826Z,11.60
2022-09-26T08:12:36.785Z,11.60
2022-09-26T08:15:26.869Z,11.60
2022-09-26T08:18:15.069Z,11.60
2022-09-26T08:21:05.633Z,11.60
2022-09-26T08:23:55.753Z,11.70
2022-09-26T08:26:45.264Z,11.70
2022-09-26T08:29:34.138Z,11.70
2022-09-26T08:32:22.830Z,11.70
2022-09-26T08:35:12.220Z,11.70
2022-09-26T08:38:02.827Z,11.70
2022-09-26T08:40:56.706Z,11.80
2022-09-26T08:43:59.511Z,11.90
2022-09-26T08:46:59.043Z,11.90
2022-09-26T08:50:09.274Z,12.00
2022-09-26T08:53:03.143Z,12.00
2022-09-26T08:55:53.647Z,12.10
2022-09-26T08:58:48.170Z,12.20
2022-09-26T09:01:42.604Z,12.20
2022-09-26T09:04:42.387Z,12.30
2022-09-26T09:07:31.080Z,12.40
2022-09-26T09:10:23.770Z,12.40
2022-09-26T09:13:24.220Z,12.40
2022-09-26T09:16:31.666Z,12.50
2022-09-26T09:19:30.991Z,12.50
2022-09-26T09:22:44.699Z,12.60
2022-09-26T09:25:36.370Z,12.70
2022-09-26T09:28:34.102Z,12.70
2022-09-26T09:31:25.193Z,12.80
2022-09-26T09:34:22.637Z,12.70
2022-09-26T09:37:16.520Z,12.80
2022-09-26T09:40:07.633Z,12.80
2022-09-26T09:43:00.743Z,12.80
2022-09-26T09:45:51.325Z,12.80
2022-09-26T09:48:39.524Z,12.80
2022-09-26T09:51:46.046Z,12.90
2022-09-26T09:54:47.763Z,12.90
2022-09-26T09:57:50.890Z,13.00
2022-09-26T10:00:46.645Z,13.00
2022-09-26T10:03:43.891Z,13.00
2022-09-26T10:06:45.594Z,13.00
2022-09-26T10:09:41.090Z,12.90
2022-09-26T10:12:32.871Z,13.00
2022-09-26T10:15:26.162Z,13.00
2022-09-26T10:18:25.142Z,13.00
2022-09-26T10:21:19.595Z,13.00
2022-09-26T10:24:22.284Z,13.10
2022-09-26T10:27:24.426Z,13.10
2022-09-26T10:30:30.329Z,13.20
2022-09-26T10:33:27.787Z,13.20
2022-09-26T10:36:21.805Z,13.30
2022-09-26T10:39:37.291Z,13.30
2022-09-26T10:42:32.054Z,13.30
2022-09-26T10:45:27.272Z,13.40
2022-09-26T10:48:22.006Z,13.50
2022-09-26T10:51:11.798Z,13.50
2022-09-26T10:54:05.031Z,13.50
2022-09-26T10:56:57.512Z,13.50
2022-09-26T10:59:48.395Z,13.60
2022-09-26T11:02:37.637Z,13.60
2022-09-26T11:05:43.373Z,13.60
2022-09-26T11:08:33.236Z,13.50
2022-09-26T11:11:22.518Z,13.50
2022-09-26T11:14:10.790Z,13.50
2022-09-26T11:17:02.553Z,13.60
2022-09-26T11:19:58.310Z,13.60
2022-09-26T11:22:53.409Z,13.60
2022-09-26T11:35:45.482Z,13.40
2022-09-26T11:38:41.094Z,13.30
2022-09-26T11:41:47.100Z,13.30
2022-09-26T11:45:02.743Z,13.30
2022-09-26T11:48:24.967Z,13.20
2022-09-26T11:51:23.634Z,13.10
2022-09-26T11:54:25.937Z,13.10
2022-09-26T11:57:28.242Z,13.10
2022-09-26T12:00:26.548Z,13.00
2022-09-26T12:03:50.250Z,13.00
2022-09-26T12:06:49.636Z,12.90
2022-09-26T12:10:03.700Z,12.80
2022-09-26T12:13:11.073Z,12.70
2022-09-26T12:16:09.534Z,12.70
2022-09-26T12:19:05.403Z,12.60
2022-09-26T12:22:20.849Z,12.60
2022-09-26T12:25:31.789Z,12.60
2022-09-26T12:28:30.756Z,12.60
2022-09-26T12:31:25.914Z,12.50
2022-09-26T12:34:37.551Z,12.50
2022-09-26T12:37:41.080Z,12.50
2022-09-26T12:40:37.003Z,12.50
2022-09-26T12:43:44.590Z,12.50
2022-09-26T12:46:52.225Z,12.60
2022-09-26T12:49:58.157Z,12.60
2022-09-26T12:53:11.367Z,12.60
2022-09-26T12:56:11.041Z,12.60
2022-09-26T12:59:17.542Z,12.60
2022-09-26T13:02:33.466Z,12.60
2022-09-26T13:06:13.828Z,12.60
2022-09-26T13:09:16.745Z,12.60
2022-09-26T13:12:16.781Z,12.60
2022-09-26T13:15:19.591Z,12.70
2022-09-26T13:18:16.738Z,12.70
2022-09-26T13:21:13.319Z,12.70
2022-09-26T13:24:08.556Z,12.70
2022-09-26T13:27:05.605Z,12.70
2022-09-26T13:30:01.532Z,12.70
2022-09-26T13:32:57.043Z,12.70
2022-09-26T13:35:47.909Z,12.70
2022-09-26T13:38:47.669Z,12.80
2022-09-26T13:41:44.991Z,12.80
2022-09-26T13:44:52.130Z,12.70
2022-09-26T13:47:49.711Z,12.70
2022-09-26T13:50:44.823Z,12.70
2022-09-26T13:53:38.096Z,12.70
2022-09-26T13:56:48.409Z,12.60
2022-09-26T13:59:52.226Z,12.60
2022-09-26T14:02:42.575Z,12.60
2022-09-26T14:05:51.196Z,12.60
2022-09-26T14:09:27.728Z,12.60
2022-09-26T14:12:34.531Z,12.50
2022-09-26T14:15:25.606Z,12.40
2022-09-26T14:18:54.908Z,12.40
2022-09-26T14:21:46.407Z,12.40
2022-09-26T14:24:37.361Z,12.40
2022-09-26T14:27:29.213Z,12.30
2022-09-26T14:30:27.605Z,12.30
2022-09-26T14:33:19.054Z,12.30
2022-09-26T14:36:35.128Z,12.20
2022-09-26T14:39:39.695Z,12.20
2022-09-26T14:42:31.856Z,12.20
2022-09-26T14:45:24.949Z,12.20
2022-09-26T14:48:20.725Z,12.20
2022-09-26T14:51:25.624Z,12.10
2022-09-26T14:54:22.899Z,12.10
2022-09-26T14:57:21.872Z,12.10
2022-09-26T15:00:36.837Z,12.10
2022-09-26T15:03:25.783Z,12.10
2022-09-26T15:06:16.438Z,12.00
2022-09-26T15:09:11.067Z,12.00
2022-09-26T15:12:02.077Z,12.00
2022-09-26T15:14:56.242Z,12.00
2022-09-26T15:17:53.693Z,12.00
2022-09-26T15:20:47.800Z,11.90
2022-09-26T15:23:46.845Z,11.90
2022-09-26T15:26:37.808Z,11.90
2022-09-26T15:29:26.609Z,11.90
2022-09-26T15:32:16.962Z,11.80
2022-09-26T15:35:07.951Z,11.80
2022-09-26T15:37:59.960Z,11.80
2022-09-26T15:41:01.132Z,11.70
2022-09-26T15:43:48.410Z,11.70
2022-09-26T15:46:36.872Z,11.60
2022-09-26T15:49:28.489Z,11.60
2022-09-26T15:52:19.443Z,11.60
2022-09-26T15:55:08.772Z,11.60
2022-09-26T15:58:00.752Z,11.60
2022-09-26T16:00:52.216Z,11.60
2022-09-26T16:03:45.763Z,11.60
2022-09-26T16:06:36.429Z,11.60
2022-09-26T16:09:32.127Z,11.50
2022-09-26T16:12:23.622Z,11.50
2022-09-26T16:15:17.574Z,11.60
2022-09-26T16:18:06.920Z,11.50
2022-09-26T16:21:16.282Z,11.60
2022-09-26T16:24:27.853Z,11.60
2022-09-26T16:27:24.345Z,11.60
2022-09-26T16:30:37.633Z,11.50
2022-09-26T16:33:32.610Z,11.50
2022-09-26T16:36:23.487Z,11.50
2022-09-26T16:39:20.997Z,11.50
2022-09-26T16:42:17.820Z,11.50
2022-09-26T16:45:14.459Z,11.50
2022-09-26T16:48:03.185Z,11.50
2022-09-26T16:51:13.452Z,11.40
2022-09-26T16:54:17.778Z,11.40
2022-09-26T16:57:06.609Z,11.40
2022-09-26T17:00:18.881Z,11.50
2022-09-26T17:03:21.154Z,11.50
2022-09-26T17:06:10.855Z,11.50
2022-09-26T17:09:14.624Z,11.50
2022-09-26T17:12:07.623Z,11.50
2022-09-26T17:14:56.859Z,11.50
2022-09-26T17:17:45.130Z,11.50
2022-09-26T17:20:34.842Z,11.50
2022-09-26T17:23:41.438Z,11.60
2022-09-26T17:26:32.482Z,11.60
2022-09-26T17:29:24.898Z,11.50
2022-09-26T17:32:16.579Z,11.60
2022-09-26T17:35:12.721Z,11.60
2022-09-26T17:38:04.406Z,11.60
2022-09-26T17:40:52.664Z,11.60
2022-09-26T17:43:45.515Z,11.60
2022-09-26T17:46:37.365Z,11.70
2022-09-26T17:49:29.522Z,11.70
2022-09-26T17:52:24.891Z,11.70
2022-09-26T17:55:15.040Z,11.70
2022-09-26T17:58:10.311Z,11.70
2022-09-26T18:00:59.043Z,11.70
2022-09-26T18:03:53.150Z,11.70
2022-09-26T18:06:44.146Z,11.70
2022-09-26T18:09:43.456Z,11.70
2022-09-26T18:12:34.397Z,11.70
2022-09-26T18:15:27.056Z,11.70
2022-09-26T18:18:26.654Z,11.70
2022-09-26T18:21:18.721Z,11.70
2022-09-26T18:24:18.651Z,11.70
2022-09-26T18:27:14.616Z,11.70
2022-09-26T18:30:15.139Z,11.70
2022-09-26T18:33:07.052Z,11.70
2022-09-26T18:36:05.359Z,11.80
2022-09-26T18:38:55.023Z,11.70
2022-09-26T18:41:49.504Z,11.80
2022-09-26T18:44:43.034Z,11.70
2022-09-26T18:47:38.630Z,11.70
2022-09-26T18:50:33.787Z,11.70
2022-09-26T18:53:37.796Z,11.70
2022-09-26T18:56:46.991Z,11.80
2022-09-26T18:59:37.325Z,11.70
2022-09-26T19:02:38.944Z,11.70
2022-09-26T19:05:35.287Z,11.70
2022-09-26T19:08:43.057Z,11.70
2022-09-26T19:11:36.553Z,11.70
2022-09-26T19:14:30.198Z,11.70
2022-09-26T19:17:18.458Z,11.80
2022-09-26T19:20:15.099Z,11.70
2022-09-26T19:23:11.996Z,11.70
2022-09-26T19:26:07.507Z,11.60
2022-09-26T19:28:59.309Z,11.60
2022-09-26T19:31:50.616Z,11.60
2022-09-26T19:34:39.206Z,11.50
2022-09-26T19:37:33.480Z,11.50
2022-09-26T19:40:48.356Z,11.50
2022-09-26T19:44:00.746Z,11.50
2022-09-26T19:47:14.881Z,11.50
2022-09-26T19:50:18.651Z,11.40
2022-09-26T19:53:23.655Z,11.40
2022-09-26T19:56:38.052Z,11.40
2022-09-26T19:59:40.437Z,11.40
2022-09-26T20:03:07.413Z,11.40
2022-09-26T20:06:21.195Z,11.40
2022-09-26T20:09:28.458Z,11.40
2022-09-26T20:12:24.349Z,11.40
2022-09-26T20:15:27.301Z,11.40
2022-09-26T20:18:50.725Z,11.40
2022-09-26T20:22:08.942Z,11.40
2022-09-26T20:25:26.610Z,11.40
2022-09-26T20:28:42.991Z,11.30
2022-09-26T20:31:45.824Z,11.30
2022-09-26T20:34:55.023Z,11.30
2022-09-26T20:37:54.541Z,11.30
2022-09-26T20:41:00.379Z,11.30
2022-09-26T20:44:09.116Z,11.30
2022-09-26T20:47:31.040Z,11.30
2022-09-26T20:50:34.275Z,11.30
2022-09-26T20:53:30.380Z,11.20
2022-09-26T20:56:30.430Z,11.10
2022-09-26T20:59:32.432Z,11.20
2022-09-26T21:02:48.668Z,11.20
2022-09-26T21:05:55.791Z,11.20
2022-09-26T21:08:59.824Z,11.20
2022-09-26T21:11:52.835Z,11.20
2022-09-26T21:15:17.494Z,11.20
2022-09-26T21:18:12.511Z,11.10
2022-09-26T21:21:19.078Z,11.20
2022-09-26T21:24:25.280Z,11.20
2022-09-26T21:27:33.977Z,11.10
2022-09-26T21:30:35.556Z,11.20
2022-09-26T21:37:23.462Z,11.20
2022-09-26T21:40:39.245Z,11.20
2022-09-26T21:43:41.855Z,11.20
2022-09-26T21:46:37.087Z,11.20
2022-09-26T21:49:38.124Z,11.20
2022-09-26T21:52:58.966Z,11.20
2022-09-26T21:59:39.879Z,11.20
2022-09-26T22:03:24.462Z,11.20
2022-09-26T22:06:21.385Z,11.20
2022-09-26T22:09:30.286Z,11.20
2022-09-26T22:12:31.641Z,11.20
2022-09-26T22:15:37.626Z,11.20
2022-09-26T22:18:44.144Z,11.20
2022-09-26T22:21:56.542Z,11.10
2022-09-26T22:24:59.802Z,11.20
2022-09-26T22:27:57.988Z,11.20
2022-09-26T22:31:07.937Z,11.20
2022-09-26T22:34:18.766Z,11.20
2022-09-26T22:37:45.464Z,11.20
2022-09-26T22:40:55.664Z,11.20
2022-09-26T22:43:52.892Z,11.20
2022-09-26T22:47:08.527Z,11.20
2022-09-26T22:50:15.116Z,11.20
2022-09-26T22:53:08.956Z,11.20
2022-09-26T22:56:10.652Z,11.20
2022-09-26T22:59:31.687Z,11.20
2022-09-26T23:05:42.819Z,11.20
2022-09-26T23:08:53.161Z,11.20
2022-09-26T23:12:05.902Z,11.20
2022-09-26T23:15:08.103Z,11.10
2022-09-26T23:18:13.170Z,11.10
2022-09-26T23:25:06.140Z,11.10
2022-09-26T23:28:04.797Z,11.10
2022-09-26T23:31:15.450Z,11.10
2022-09-26T23:34:26.651Z,11.10
2022-09-26T23:37:34.191Z,11.10
2022-09-26T23:40:38.548Z,11.10
2022-09-26T23:44:02.773Z,11.10
2022-09-26T23:50:40.428Z,11.10
2022-09-26T23:53:47.880Z,11.10
2022-09-26T23:57:10.758Z,11.10
